createdAt,value
2018-05-29T00:02:26.502Z,3.90
2018-05-29T00:04:54.057Z,4.00
2018-05-29T00:07:21.595Z,4.40
2018-05-29T00:09:49.158Z,4.20
2018-05-29T00:12:16.694Z,3.23
2018-05-29T00:14:45.028Z,3.30
2018-05-29T00:17:12.589Z,3.37
2018-05-29T00:19:40.170Z,3.63
2018-05-29T00:22:07.708Z,4.13
2018-05-29T00:24:35.277Z,4.40
2018-05-29T00:27:02.812Z,5.77
2018-05-29T00:29:30.379Z,4.90
2018-05-29T00:31:57.915Z,5.00
2018-05-29T00:34:25.509Z,4.13
2018-05-29T00:36:53.036Z,4.70
2018-05-29T00:39:20.591Z,4.40
2018-05-29T00:41:48.904Z,4.27
2018-05-29T00:44:16.471Z,4.23
2018-05-29T00:46:44.003Z,3.73
2018-05-29T00:49:11.559Z,4.27
2018-05-29T00:51:39.102Z,5.20
2018-05-29T00:54:07.432Z,4.90
2018-05-29T00:56:34.983Z,4.20
2018-05-29T00:59:02.548Z,5.90
2018-05-29T01:01:30.088Z,4.37
2018-05-29T01:03:57.645Z,5.23
2018-05-29T01:06:25.196Z,5.13
2018-05-29T01:08:52.765Z,6.70
2018-05-29T01:11:20.310Z,6.10
2018-05-29T01:13:47.889Z,6.87
2018-05-29T01:16:15.427Z,6.70
2018-05-29T01:18:43.755Z,5.57
2018-05-29T01:21:11.287Z,4.00
2018-05-29T01:23:38.851Z,4.13
2018-05-29T01:26:06.394Z,3.70
2018-05-29T01:28:33.957Z,3.90
2018-05-29T01:31:01.510Z,3.23
2018-05-29T01:33:29.066Z,3.60
2018-05-29T01:35:56.618Z,3.33
2018-05-29T01:38:24.937Z,3.33
2018-05-29T01:40:52.463Z,5.07
2018-05-29T01:43:20.799Z,7.17
2018-05-29T01:45:48.337Z,21.33
2018-05-29T01:48:15.877Z,14.57
2018-05-29T01:50:43.448Z,18.50
2018-05-29T01:53:10.990Z,10.70
2018-05-29T01:55:38.557Z,12.90
2018-05-29T01:58:06.130Z,4.07
2018-05-29T02:00:33.686Z,3.70
2018-05-29T02:03:01.218Z,3.97
2018-05-29T02:05:29.545Z,4.70
2018-05-29T02:07:57.084Z,3.47
2018-05-29T02:10:24.646Z,5.10
2018-05-29T02:12:52.191Z,5.00
2018-05-29T02:15:19.759Z,4.90
2018-05-29T02:17:47.300Z,4.47
2018-05-29T02:20:15.622Z,3.70
2018-05-29T02:22:43.156Z,4.70
2018-05-29T02:25:10.718Z,4.70
2018-05-29T02:27:38.249Z,3.50
2018-05-29T02:30:06.570Z,4.37
2018-05-29T02:32:34.863Z,5.50
2018-05-29T02:35:02.422Z,12.70
2018-05-29T02:37:29.963Z,14.70
2018-05-29T02:39:57.525Z,14.20
2018-05-29T02:42:25.067Z,5.33
2018-05-29T02:44:52.629Z,4.63
2018-05-29T02:47:20.183Z,4.70
2018-05-29T02:49:47.738Z,4.80
2018-05-29T02:52:15.285Z,7.13
2018-05-29T02:54:43.611Z,23.10
2018-05-29T02:57:11.156Z,17.67
2018-05-29T02:59:38.729Z,18.10
2018-05-29T03:02:06.271Z,14.07
2018-05-29T03:04:33.836Z,8.87
2018-05-29T03:07:01.380Z,6.97
2018-05-29T03:09:28.946Z,8.50
2018-05-29T03:11:56.487Z,9.20
2018-05-29T03:14:24.814Z,7.37
2018-05-29T03:16:52.353Z,5.43
2018-05-29T03:19:19.932Z,3.70
2018-05-29T03:21:47.470Z,5.20
2018-05-29T03:24:15.030Z,15.10
2018-05-29T03:26:42.569Z,22.23
2018-05-29T03:29:10.893Z,28.13
2018-05-29T03:31:38.447Z,19.30
2018-05-29T03:34:06.023Z,21.50
2018-05-29T03:36:33.563Z,7.73
2018-05-29T03:39:01.103Z,4.10
2018-05-29T03:41:28.662Z,4.47
2018-05-29T03:43:56.210Z,4.40
2018-05-29T03:46:24.536Z,4.10
2018-05-29T03:48:52.070Z,5.17
2018-05-29T03:51:19.666Z,5.90
2018-05-29T03:53:47.185Z,6.13
2018-05-29T03:56:14.755Z,5.37
2018-05-29T03:58:42.295Z,4.80
2018-05-29T04:01:09.861Z,5.10
2018-05-29T04:03:37.399Z,7.63
2018-05-29T04:06:05.718Z,5.13
2018-05-29T04:08:33.279Z,6.67
2018-05-29T04:11:00.838Z,5.43
2018-05-29T04:13:28.393Z,13.90
2018-05-29T04:15:55.961Z,11.00
2018-05-29T04:18:23.501Z,7.30
2018-05-29T04:20:51.062Z,7.03
2018-05-29T04:23:18.598Z,5.17
2018-05-29T04:25:46.929Z,5.20
2018-05-29T04:28:14.476Z,33.33
2018-05-29T04:30:42.047Z,54.13
2018-05-29T04:33:09.591Z,11.67
2018-05-29T04:35:37.154Z,24.97
2018-05-29T04:38:04.698Z,64.87
2018-05-29T04:40:32.275Z,17.67
2018-05-29T04:42:59.815Z,13.20
2018-05-29T04:45:27.375Z,7.37
2018-05-29T04:47:54.915Z,5.60
2018-05-29T04:50:23.251Z,6.00
2018-05-29T04:52:50.787Z,26.10
2018-05-29T04:55:18.347Z,13.27
2018-05-29T04:57:45.889Z,7.20
2018-05-29T05:00:13.449Z,5.47
2018-05-29T05:02:41.000Z,9.60
2018-05-29T05:05:09.330Z,5.60
2018-05-29T05:07:36.875Z,6.00
2018-05-29T05:10:04.428Z,5.00
2018-05-29T05:12:31.959Z,4.60
2018-05-29T05:15:00.283Z,4.30
2018-05-29T05:17:27.829Z,5.80
2018-05-29T05:19:55.386Z,5.67
2018-05-29T05:22:22.923Z,5.60
2018-05-29T05:24:51.247Z,4.30
2018-05-29T05:27:18.792Z,7.07
2018-05-29T05:29:46.391Z,11.97
2018-05-29T05:32:13.925Z,4.77
2018-05-29T05:34:41.471Z,12.00
2018-05-29T05:37:09.036Z,9.70
2018-05-29T05:39:36.632Z,6.33
2018-05-29T05:42:04.181Z,12.60
2018-05-29T05:44:33.233Z,7.20
2018-05-29T05:47:00.790Z,7.50
2018-05-29T05:49:28.335Z,6.30
2018-05-29T05:51:55.906Z,5.27
2018-05-29T05:54:23.435Z,3.43
2018-05-29T05:56:51.758Z,4.20
2018-05-29T05:59:19.291Z,4.00
2018-05-29T06:01:46.858Z,3.77
2018-05-29T06:04:14.393Z,3.67
2018-05-29T06:06:42.720Z,3.83
2018-05-29T06:09:10.257Z,4.30
2018-05-29T06:11:37.832Z,4.43
2018-05-29T06:14:05.366Z,3.30
2018-05-29T06:16:32.959Z,3.70
2018-05-29T06:19:00.503Z,4.10
2018-05-29T06:21:28.061Z,4.50
2018-05-29T06:23:55.607Z,3.00
2018-05-29T06:26:23.931Z,4.17
2018-05-29T06:28:51.464Z,3.67
2018-05-29T06:31:19.031Z,3.80
2018-05-29T06:33:46.574Z,3.80
2018-05-29T06:36:14.130Z,3.60
2018-05-29T06:38:42.478Z,3.27
2018-05-29T06:41:10.008Z,3.40
2018-05-29T06:43:37.542Z,4.03
2018-05-29T06:46:05.096Z,3.63
2018-05-29T06:48:32.631Z,4.37
2018-05-29T06:51:00.954Z,3.73
2018-05-29T06:53:28.717Z,3.57
2018-05-29T06:55:56.274Z,3.43
2018-05-29T06:58:23.802Z,3.53
2018-05-29T07:00:52.130Z,3.57
2018-05-29T07:03:19.665Z,3.53
2018-05-29T07:05:47.226Z,3.97
2018-05-29T07:08:14.765Z,4.20
2018-05-29T07:10:43.096Z,3.20
2018-05-29T07:13:10.638Z,3.20
2018-05-29T07:15:38.195Z,3.10
2018-05-29T07:18:05.730Z,3.47
2018-05-29T07:20:33.291Z,3.87
2018-05-29T07:23:00.828Z,3.60
2018-05-29T07:25:29.151Z,3.00
2018-05-29T07:27:56.686Z,3.53
2018-05-29T07:30:24.219Z,3.17
2018-05-29T07:32:51.786Z,4.03
2018-05-29T07:35:20.114Z,3.17
2018-05-29T07:37:47.673Z,3.63
2018-05-29T07:40:15.214Z,3.13
2018-05-29T07:42:42.770Z,2.80
2018-05-29T07:45:10.349Z,2.50
2018-05-29T07:47:37.877Z,3.50
2018-05-29T07:50:06.192Z,3.00
2018-05-29T07:52:33.747Z,3.10
2018-05-29T07:55:01.282Z,2.83
2018-05-29T07:57:28.839Z,2.73
2018-05-29T07:59:56.376Z,3.47
2018-05-29T08:02:24.707Z,3.73
2018-05-29T08:04:52.239Z,2.83
2018-05-29T08:07:19.804Z,3.67
2018-05-29T08:09:47.334Z,3.33
2018-05-29T08:12:14.897Z,3.30
2018-05-29T08:14:43.204Z,3.60
2018-05-29T08:17:10.768Z,2.70
2018-05-29T08:19:38.301Z,3.73
2018-05-29T08:22:06.624Z,3.43
2018-05-29T08:24:34.214Z,2.90
2018-05-29T08:27:01.755Z,3.50
2018-05-29T08:29:30.055Z,3.47
2018-05-29T08:31:57.615Z,3.20
2018-05-29T08:34:25.163Z,2.90
2018-05-29T08:36:52.713Z,3.90
2018-05-29T08:39:20.311Z,3.53
2018-05-29T08:41:47.839Z,3.40
2018-05-29T08:44:15.382Z,3.07
2018-05-29T08:46:42.948Z,3.33
2018-05-29T08:49:10.485Z,3.00
2018-05-29T08:51:38.047Z,3.30
2018-05-29T08:54:05.587Z,2.87
2018-05-29T08:56:33.902Z,3.50
2018-05-29T08:59:01.439Z,3.83
2018-05-29T09:01:29.003Z,3.10
2018-05-29T09:03:56.578Z,2.93
2018-05-29T09:06:24.143Z,3.73
2018-05-29T09:08:51.688Z,3.50
2018-05-29T09:11:19.249Z,4.23
2018-05-29T09:13:46.802Z,4.43
2018-05-29T09:16:14.363Z,3.20
2018-05-29T09:18:41.914Z,4.57
2018-05-29T09:21:09.479Z,3.60
2018-05-29T09:23:37.029Z,4.30
2018-05-29T09:26:04.638Z,3.40
2018-05-29T09:28:32.169Z,3.80
2018-05-29T09:30:59.713Z,3.37
2018-05-29T09:33:27.300Z,3.90
2018-05-29T09:35:54.838Z,3.67
2018-05-29T09:38:22.397Z,3.80
2018-05-29T09:40:49.939Z,3.90
2018-05-29T09:43:18.263Z,5.47
2018-05-29T09:45:45.809Z,3.70
2018-05-29T09:48:13.398Z,4.77
2018-05-29T09:50:40.928Z,4.40
2018-05-29T09:53:08.484Z,4.03
2018-05-29T09:55:36.029Z,3.70
2018-05-29T09:58:04.353Z,4.90
2018-05-29T10:00:37.534Z,4.20
2018-05-29T10:03:05.094Z,4.03
2018-05-29T10:05:32.630Z,3.93
2018-05-29T10:08:00.197Z,4.63
2018-05-29T10:10:27.739Z,4.60
2018-05-29T10:12:56.067Z,3.43
2018-05-29T10:15:23.620Z,4.70
2018-05-29T10:17:51.182Z,4.83
2018-05-29T10:20:18.718Z,5.23
2018-05-29T10:22:46.281Z,4.00
2018-05-29T10:25:13.818Z,4.57
2018-05-29T10:27:42.147Z,3.87
2018-05-29T10:30:09.684Z,4.67
2018-05-29T10:32:37.239Z,3.67
2018-05-29T10:35:04.774Z,3.60
2018-05-29T10:37:33.109Z,4.93
2018-05-29T10:40:00.650Z,4.60
2018-05-29T10:42:28.215Z,4.30
2018-05-29T10:44:55.761Z,4.23
2018-05-29T10:47:23.321Z,3.97
2018-05-29T10:49:50.867Z,3.90
2018-05-29T10:52:18.426Z,3.20
2018-05-29T10:54:45.967Z,3.77
2018-05-29T10:57:14.294Z,3.40
2018-05-29T10:59:41.835Z,3.70
2018-05-29T11:02:09.404Z,4.07
2018-05-29T11:04:36.939Z,2.70
2018-05-29T11:07:04.493Z,3.80
2018-05-29T11:09:32.787Z,3.10
2018-05-29T11:12:00.347Z,3.67
2018-05-29T11:14:27.886Z,3.13
2018-05-29T11:16:56.219Z,3.10
2018-05-29T11:19:23.758Z,3.90
2018-05-29T11:21:51.316Z,3.20
2018-05-29T11:24:18.866Z,3.57
2018-05-29T11:26:46.400Z,4.00
2018-05-29T11:29:14.735Z,3.30
2018-05-29T11:31:42.279Z,3.67
2018-05-29T11:34:09.834Z,3.60
2018-05-29T11:36:37.369Z,4.47
2018-05-29T11:39:06.615Z,3.90
2018-05-29T11:41:34.157Z,4.30
2018-05-29T11:44:01.726Z,3.00
2018-05-29T11:46:29.257Z,3.47
2018-05-29T11:48:56.823Z,4.20
2018-05-29T11:51:24.362Z,4.00
2018-05-29T11:53:52.688Z,3.67
2018-05-29T11:56:20.222Z,3.60
2018-05-29T11:58:47.781Z,3.03
2018-05-29T12:01:15.314Z,3.13
2018-05-29T12:03:43.643Z,3.10
2018-05-29T12:06:11.178Z,3.00
2018-05-29T12:08:38.737Z,2.93
2018-05-29T12:11:06.274Z,3.00
2018-05-29T12:13:34.604Z,2.90
2018-05-29T12:16:02.143Z,3.27
2018-05-29T12:18:29.702Z,2.97
2018-05-29T12:20:57.233Z,3.00
2018-05-29T12:23:25.554Z,3.47
2018-05-29T12:25:53.107Z,3.63
2018-05-29T12:28:20.712Z,3.40
2018-05-29T12:30:48.214Z,3.33
2018-05-29T12:33:15.775Z,3.20
2018-05-29T12:35:43.305Z,3.73
2018-05-29T12:38:11.640Z,3.47
2018-05-29T12:40:39.174Z,4.00
2018-05-29T12:43:06.731Z,3.30
2018-05-29T12:45:34.275Z,2.90
2018-05-29T12:48:03.112Z,4.30
2018-05-29T12:50:30.645Z,3.77
2018-05-29T12:52:58.215Z,3.03
2018-05-29T12:55:25.767Z,3.73
2018-05-29T12:57:53.330Z,3.60
2018-05-29T13:00:20.996Z,3.60
2018-05-29T13:02:48.538Z,4.10
2018-05-29T13:05:16.098Z,3.47
2018-05-29T13:07:43.638Z,2.93
2018-05-29T13:10:11.966Z,3.80
2018-05-29T13:12:39.510Z,3.17
2018-05-29T13:15:07.084Z,3.70
2018-05-29T13:17:34.638Z,3.67
2018-05-29T13:20:02.198Z,3.13
2018-05-29T13:22:29.784Z,4.20
2018-05-29T13:24:57.327Z,3.70
2018-05-29T13:27:24.868Z,3.67
2018-05-29T13:29:52.424Z,3.30
2018-05-29T13:32:19.964Z,3.50
2018-05-29T13:34:48.296Z,3.70
2018-05-29T13:37:15.842Z,3.37
2018-05-29T13:39:43.403Z,6.40
2018-05-29T13:42:11.796Z,4.80
2018-05-29T13:44:39.360Z,3.60
2018-05-29T13:47:06.915Z,4.60
2018-05-29T13:49:34.471Z,3.77
2018-05-29T13:52:02.010Z,3.50
2018-05-29T13:54:29.582Z,4.03
2018-05-29T13:56:57.113Z,3.60
2018-05-29T13:59:25.441Z,3.60
2018-05-29T14:01:52.978Z,3.03
2018-05-29T14:04:20.542Z,3.43
2018-05-29T14:06:48.080Z,2.53
2018-05-29T14:09:15.681Z,3.30
2018-05-29T14:11:43.211Z,2.97
2018-05-29T14:14:10.771Z,3.03
2018-05-29T14:16:38.310Z,3.40
2018-05-29T14:19:05.885Z,3.37
2018-05-29T14:21:33.430Z,2.87
2018-05-29T14:24:01.021Z,3.20
2018-05-29T14:26:28.558Z,3.00
2018-05-29T14:28:56.119Z,3.40
2018-05-29T14:31:23.698Z,2.90
2018-05-29T14:33:51.259Z,3.03
2018-05-29T14:36:18.803Z,3.83
2018-05-29T14:38:46.362Z,3.30
2018-05-29T14:41:13.895Z,3.23
2018-05-29T14:43:42.253Z,4.00
2018-05-29T14:46:09.787Z,2.90
2018-05-29T14:48:37.342Z,2.93
2018-05-29T14:51:04.887Z,3.40
2018-05-29T14:53:32.439Z,3.73
2018-05-29T14:55:59.983Z,3.20
2018-05-29T14:58:28.290Z,2.77
2018-05-29T15:00:55.853Z,2.60
2018-05-29T15:03:23.393Z,2.90
2018-05-29T15:05:50.950Z,2.87
2018-05-29T15:08:19.248Z,2.40
2018-05-29T15:10:46.806Z,2.70
2018-05-29T15:13:14.338Z,3.17
2018-05-29T15:15:42.667Z,3.00
2018-05-29T15:18:10.209Z,3.03
2018-05-29T15:20:37.775Z,2.13
2018-05-29T15:23:05.325Z,2.33
2018-05-29T15:25:32.881Z,2.73
2018-05-29T15:28:00.418Z,3.27
2018-05-29T15:30:28.746Z,2.90
2018-05-29T15:32:56.285Z,3.17
2018-05-29T15:35:23.841Z,2.70
2018-05-29T15:37:51.390Z,3.23
2018-05-29T15:40:18.955Z,2.80
2018-05-29T15:42:46.486Z,2.50
2018-05-29T15:45:14.814Z,2.47
2018-05-29T15:47:42.357Z,2.57
2018-05-29T15:50:09.914Z,3.10
2018-05-29T15:52:37.459Z,3.80
2018-05-29T15:55:05.783Z,2.30
2018-05-29T15:57:33.322Z,2.60
2018-05-29T16:00:00.919Z,2.90
2018-05-29T16:02:28.449Z,2.80
2018-05-29T16:04:56.007Z,3.13
2018-05-29T16:07:23.552Z,2.13
2018-05-29T16:09:51.118Z,2.60
2018-05-29T16:12:18.666Z,2.40
2018-05-29T16:14:46.234Z,3.23
2018-05-29T16:17:13.779Z,2.50
2018-05-29T16:19:42.115Z,2.90
2018-05-29T16:22:09.651Z,3.67
2018-05-29T16:24:37.190Z,2.80
2018-05-29T16:27:04.748Z,2.93
2018-05-29T16:29:32.314Z,2.97
2018-05-29T16:31:59.880Z,2.77
2018-05-29T16:34:27.419Z,3.90
2018-05-29T16:36:55.742Z,3.30
2018-05-29T16:39:23.280Z,3.20
2018-05-29T16:41:50.834Z,2.70
2018-05-29T16:44:18.377Z,3.03
2018-05-29T16:46:46.711Z,2.63
2018-05-29T16:49:14.249Z,2.50
2018-05-29T16:51:41.815Z,3.50
2018-05-29T16:54:09.356Z,3.20
2018-05-29T16:56:36.920Z,2.37
2018-05-29T16:59:04.459Z,2.53
2018-05-29T17:01:32.752Z,2.50
2018-05-29T17:04:00.310Z,3.50
2018-05-29T17:06:27.853Z,3.00
2018-05-29T17:08:56.180Z,3.00
2018-05-29T17:11:23.728Z,3.50
2018-05-29T17:13:51.296Z,3.17
2018-05-29T17:16:18.836Z,3.50
2018-05-29T17:18:46.397Z,3.00
2018-05-29T17:21:13.935Z,3.37
2018-05-29T17:23:42.260Z,3.03
2018-05-29T17:26:09.794Z,2.70
2018-05-29T17:28:37.355Z,4.03
2018-05-29T17:31:04.890Z,3.83
2018-05-29T17:33:33.212Z,2.93
2018-05-29T17:36:00.746Z,3.70
2018-05-29T17:38:28.302Z,3.40
2018-05-29T17:40:55.842Z,3.40
2018-05-29T17:43:24.173Z,3.03
2018-05-29T17:45:51.715Z,3.40
2018-05-29T17:48:19.270Z,3.80
2018-05-29T17:50:46.802Z,3.80
2018-05-29T17:53:15.130Z,3.70
2018-05-29T17:55:42.686Z,3.30
2018-05-29T17:58:10.258Z,3.90
2018-05-29T18:00:37.802Z,3.60
2018-05-29T18:03:05.362Z,3.07
2018-05-29T18:05:32.916Z,3.20
2018-05-29T18:08:00.491Z,3.70
2018-05-29T18:10:28.039Z,3.03
2018-05-29T18:12:55.608Z,3.40
2018-05-29T18:15:23.265Z,3.27
2018-05-29T18:17:50.835Z,3.20
2018-05-29T18:20:18.377Z,3.20
2018-05-29T18:22:45.942Z,4.07
2018-05-29T18:25:13.500Z,3.50
2018-05-29T18:27:41.067Z,3.83
2018-05-29T18:30:08.623Z,3.00
2018-05-29T18:32:36.182Z,2.70
2018-05-29T18:35:03.713Z,3.07
2018-05-29T18:37:31.283Z,3.00
2018-05-29T18:39:58.822Z,3.07
2018-05-29T18:42:27.146Z,2.63
2018-05-29T18:44:54.687Z,3.13
2018-05-29T18:47:22.259Z,3.30
2018-05-29T18:49:49.853Z,3.67
2018-05-29T18:52:17.358Z,3.30
2018-05-29T18:54:44.923Z,3.60
2018-05-29T18:57:12.463Z,4.10
2018-05-29T18:59:40.798Z,3.67
2018-05-29T19:02:08.350Z,3.97
2018-05-29T19:04:35.902Z,3.90
2018-05-29T19:07:04.208Z,3.97
2018-05-29T19:09:31.771Z,4.17
2018-05-29T19:11:59.399Z,3.83
2018-05-29T19:14:26.957Z,4.63
2018-05-29T19:16:54.571Z,4.00
2018-05-29T19:19:22.080Z,3.73
2018-05-29T19:21:50.382Z,4.33
2018-05-29T19:24:17.945Z,4.37
2018-05-29T19:26:45.493Z,4.83
2018-05-29T19:29:13.054Z,4.47
2018-05-29T19:31:40.588Z,4.80
2018-05-29T19:34:08.142Z,4.63
2018-05-29T19:36:35.684Z,4.77
2018-05-29T19:39:04.009Z,5.00
2018-05-29T19:41:31.554Z,4.70
2018-05-29T19:43:59.120Z,4.40
2018-05-29T19:46:26.657Z,4.57
2018-05-29T19:48:54.217Z,4.30
2018-05-29T19:51:21.766Z,4.63
2018-05-29T19:53:50.091Z,4.43
2018-05-29T19:56:17.623Z,3.93
2018-05-29T19:58:45.185Z,4.37
2018-05-29T20:01:12.728Z,4.30
2018-05-29T20:03:40.316Z,4.50
2018-05-29T20:06:07.855Z,5.20
2018-05-29T20:08:35.436Z,4.00
2018-05-29T20:11:02.981Z,4.20
2018-05-29T20:13:30.535Z,4.37
2018-05-29T20:15:58.075Z,5.00
2018-05-29T20:18:26.413Z,5.70
2018-05-29T20:20:53.954Z,5.70
2018-05-29T20:23:21.519Z,5.00
2018-05-29T20:25:49.161Z,4.20
2018-05-29T20:28:16.722Z,4.27
2018-05-29T20:30:44.296Z,4.50
2018-05-29T20:33:11.873Z,4.10
2018-05-29T20:35:39.417Z,4.13
2018-05-29T20:38:06.990Z,4.10
2018-05-29T20:40:34.537Z,4.97
2018-05-29T20:43:02.075Z,4.33
2018-05-29T20:45:29.653Z,3.80
2018-05-29T20:47:57.190Z,4.30
2018-05-29T20:50:25.511Z,4.50
2018-05-29T20:52:53.062Z,6.30
2018-05-29T20:55:20.630Z,4.60
2018-05-29T20:57:48.182Z,5.37
2018-05-29T21:00:15.745Z,5.00
2018-05-29T21:02:43.277Z,4.87
2018-05-29T21:05:10.842Z,5.00
2018-05-29T21:07:38.529Z,5.13
2018-05-29T21:10:06.092Z,6.20
2018-05-29T21:12:33.640Z,9.67
2018-05-29T21:15:01.200Z,8.23
2018-05-29T21:17:28.743Z,8.87
2018-05-29T21:19:56.317Z,13.37
2018-05-29T21:22:23.860Z,7.47
2018-05-29T21:24:51.426Z,6.40
2018-05-29T21:27:18.968Z,5.70
2018-05-29T21:29:47.294Z,5.97
2018-05-29T21:32:16.901Z,5.50
2018-05-29T21:34:44.467Z,5.47
2018-05-29T21:37:12.008Z,6.07
2018-05-29T21:39:39.573Z,6.10
2018-05-29T21:42:07.122Z,6.17
2018-05-29T21:44:34.688Z,5.97
2018-05-29T21:47:02.239Z,6.13
2018-05-29T21:49:29.807Z,6.00
2018-05-29T21:51:57.346Z,5.90
2018-05-29T21:54:24.916Z,6.00
2018-05-29T21:56:52.468Z,6.93
2018-05-29T21:59:20.801Z,24.60
2018-05-29T22:01:48.343Z,8.50
2018-05-29T22:04:15.913Z,7.13
2018-05-29T22:06:43.456Z,6.57
2018-05-29T22:09:11.075Z,6.57
2018-05-29T22:11:39.393Z,24.23
2018-05-29T22:14:06.966Z,13.07
2018-05-29T22:16:34.506Z,8.60
2018-05-29T22:19:02.072Z,7.00
2018-05-29T22:21:29.615Z,22.80
2018-05-29T22:23:57.180Z,12.90
2018-05-29T22:26:24.717Z,19.47
2018-05-29T22:28:53.047Z,31.00
2018-05-29T22:31:20.591Z,27.43
2018-05-29T22:33:48.147Z,9.23
2018-05-29T22:36:15.691Z,9.33
2018-05-29T22:38:43.237Z,8.13
2018-05-29T22:41:11.558Z,8.13
2018-05-29T22:43:39.117Z,8.70
2018-05-29T22:46:06.674Z,8.97
2018-05-29T22:48:34.247Z,8.13
2018-05-29T22:51:01.806Z,7.97
2018-05-29T22:53:29.352Z,9.40
2018-05-29T22:55:56.914Z,8.00
2018-05-29T22:58:25.229Z,7.67
2018-05-29T23:00:54.297Z,7.77
2018-05-29T23:03:21.830Z,8.10
2018-05-29T23:05:49.418Z,7.70
2018-05-29T23:08:16.958Z,7.97
2018-05-29T23:10:44.513Z,7.83
2018-05-29T23:13:12.050Z,8.03
2018-05-29T23:15:40.380Z,29.20
2018-05-29T23:18:07.922Z,15.63
2018-05-29T23:20:35.494Z,12.97
2018-05-29T23:23:03.045Z,13.10
2018-05-29T23:25:30.606Z,8.13
2018-05-29T23:27:58.143Z,7.60
2018-05-29T23:30:25.699Z,7.80
2018-05-29T23:32:53.235Z,9.90
2018-05-29T23:35:21.568Z,13.10
2018-05-29T23:37:49.113Z,3.90
2018-05-29T23:40:16.678Z,5.00
2018-05-29T23:42:44.216Z,2.60
2018-05-29T23:45:11.787Z,2.30
2018-05-29T23:47:39.317Z,5.63
2018-05-29T23:50:07.651Z,3.60
2018-05-29T23:52:35.182Z,4.57
2018-05-29T23:55:02.749Z,10.20
2018-05-29T23:57:30.287Z,5.83
2018-05-29T23:59:58.618Z,5.70
